createdAt,value
2022-10-29T00:01:18.242Z,100880.69
2022-10-29T00:03:48.476Z,100875.75
2022-10-29T00:06:17.436Z,100878.03
2022-10-29T00:08:46.230Z,100878.31
2022-10-29T00:11:19.195Z,100873.22
2022-10-29T00:13:49.966Z,100880.09
2022-10-29T00:16:21.855Z,100870.22
2022-10-29T00:18:50.843Z,100867.78
2022-10-29T00:21:23.242Z,100863.91
2022-10-29T00:23:53.639Z,100856.59
2022-10-29T00:26:24.746Z,100854.72
2022-10-29T00:28:55.948Z,100858.63
2022-10-29T00:31:25.949Z,100860.34
2022-10-29T00:33:56.782Z,100859.97
2022-10-29T00:36:28.344Z,100861.25
2022-10-29T00:38:58.037Z,100861.97
2022-10-29T00:41:31.266Z,100851.53
2022-10-29T00:44:33.003Z,100858.03
2022-10-29T00:47:14.834Z,100858.41
2022-10-29T00:49:47.489Z,100860.38
2022-10-29T00:52:20.500Z,100850.22
2022-10-29T00:54:54.688Z,100853.78
2022-10-29T00:57:30.750Z,100852.47
2022-10-29T00:59:59.643Z,100849.75
2022-10-29T01:02:28.817Z,100841.78
2022-10-29T01:04:57.711Z,100832.00
2022-10-29T01:07:26.664Z,100832.00
2022-10-29T01:09:55.318Z,100825.78
2022-10-29T01:13:03.737Z,100825.13
2022-10-29T01:15:45.614Z,100830.50
2022-10-29T01:18:23.988Z,100832.28
2022-10-29T01:21:38.415Z,100840.00
2022-10-29T01:25:01.180Z,100838.88
2022-10-29T01:27:57.306Z,100846.28
2022-10-29T01:31:01.835Z,100835.56
2022-10-29T01:33:41.393Z,100839.03
2022-10-29T01:36:20.402Z,100842.25
2022-10-29T01:39:02.671Z,100846.47
2022-10-29T01:41:43.039Z,100845.44
2022-10-29T01:44:38.856Z,100839.03
2022-10-29T01:47:16.146Z,100841.19
2022-10-29T01:49:51.529Z,100833.22
2022-10-29T01:52:24.066Z,100830.69
2022-10-29T01:54:53.049Z,100833.78
2022-10-29T01:57:32.078Z,100823.34
2022-10-29T02:00:07.951Z,100830.19
2022-10-29T02:03:08.678Z,100822.56
2022-10-29T02:05:47.795Z,100813.28
2022-10-29T02:08:32.983Z,100816.09
2022-10-29T02:11:10.598Z,100817.97
2022-10-29T02:13:45.541Z,100819.38
2022-10-29T02:16:15.400Z,100814.59
2022-10-29T02:18:49.405Z,100808.75
2022-10-29T02:21:19.608Z,100807.91
2022-10-29T02:23:48.803Z,100804.50
2022-10-29T02:26:18.116Z,100798.16
2022-10-29T02:28:46.661Z,100793.81
2022-10-29T02:31:15.202Z,100794.22
2022-10-29T02:33:45.311Z,100789.78
2022-10-29T02:36:13.916Z,100786.59
2022-10-29T02:38:42.417Z,100775.88
2022-10-29T02:41:11.115Z,100782.06
2022-10-29T02:43:39.598Z,100783.00
2022-10-29T02:46:14.054Z,100777.00
2022-10-29T02:48:43.067Z,100760.66
2022-10-29T02:51:13.687Z,100764.91
2022-10-29T02:53:42.397Z,100770.06
2022-10-29T02:56:11.860Z,100769.28
2022-10-29T02:58:40.533Z,100768.19
2022-10-29T03:01:09.020Z,100772.59
2022-10-29T03:03:37.742Z,100770.06
2022-10-29T03:06:15.277Z,100764.03
2022-10-29T03:08:44.177Z,100757.59
2022-10-29T03:11:13.490Z,100760.22
2022-10-29T03:13:42.018Z,100755.69
2022-10-29T03:16:11.206Z,100753.16
2022-10-29T03:18:39.798Z,100760.28
2022-10-29T03:21:08.387Z,100754.00
2022-10-29T03:23:38.569Z,100741.72
2022-10-29T03:26:07.454Z,100737.88
2022-10-29T03:28:36.055Z,100736.81
2022-10-29T03:31:04.961Z,100725.19
2022-10-29T03:33:33.634Z,100730.28
2022-10-29T03:36:05.297Z,100727.16
2022-10-29T03:38:35.139Z,100727.91
2022-10-29T03:41:10.398Z,100731.66
2022-10-29T03:43:40.443Z,100729.25
2022-10-29T03:46:10.119Z,100733.63
2022-10-29T03:48:39.035Z,100735.16
2022-10-29T03:51:08.320Z,100741.72
2022-10-29T03:53:37.945Z,100739.47
2022-10-29T03:56:08.595Z,100745.88
2022-10-29T03:58:37.317Z,100760.50
2022-10-29T04:01:08.684Z,100750.97
2022-10-29T04:03:42.310Z,100761.31
2022-10-29T04:06:13.267Z,100758.25
2022-10-29T04:08:43.054Z,100758.69
2022-10-29T04:11:14.899Z,100752.50
2022-10-29T04:13:43.617Z,100751.75
2022-10-29T04:16:12.133Z,100745.75
2022-10-29T04:18:40.685Z,100751.09
2022-10-29T04:29:37.696Z,100744.00
2022-10-29T04:32:06.644Z,100728.94
2022-10-29T04:34:35.147Z,100728.19
2022-10-29T04:37:03.678Z,100730.22
2022-10-29T04:39:32.389Z,100720.16
2022-10-29T04:42:02.325Z,100713.41
2022-10-29T04:44:31.042Z,100717.69
2022-10-29T04:46:59.541Z,100712.75
2022-10-29T04:49:28.183Z,100720.75
2022-10-29T04:51:56.925Z,100719.97
2022-10-29T04:54:25.447Z,100718.22
2022-10-29T04:56:54.280Z,100718.53
2022-10-29T04:59:24.286Z,100722.78
2022-10-29T05:01:52.968Z,100720.13
2022-10-29T05:04:21.554Z,100727.31
2022-10-29T05:06:50.263Z,100721.94
2022-10-29T05:09:18.765Z,100726.47
2022-10-29T05:11:47.434Z,100732.78
2022-10-29T05:14:15.994Z,100739.66
2022-10-29T05:16:46.049Z,100744.09
2022-10-29T05:19:14.558Z,100746.38
2022-10-29T05:21:43.252Z,100757.22
2022-10-29T05:24:11.794Z,100742.34
2022-10-29T05:26:40.540Z,100759.72
2022-10-29T05:29:09.003Z,100758.88
2022-10-29T05:31:37.676Z,100764.72
2022-10-29T05:34:07.560Z,100775.94
2022-10-29T05:36:36.239Z,100770.59
2022-10-29T05:39:04.946Z,100760.50
2022-10-29T05:41:33.624Z,100758.75
2022-10-29T05:44:02.268Z,100756.78
2022-10-29T05:46:31.013Z,100767.06
2022-10-29T05:48:59.517Z,100751.16
2022-10-29T05:51:29.561Z,100754.97
2022-10-29T05:53:58.119Z,100761.53
2022-10-29T05:56:26.892Z,100763.16
2022-10-29T05:58:55.460Z,100763.94
2022-10-29T06:01:24.252Z,100757.94
2022-10-29T06:06:26.561Z,100742.25
2022-10-29T06:08:56.557Z,100750.94
2022-10-29T06:11:25.371Z,100751.72
2022-10-29T06:13:57.192Z,100745.28
2022-10-29T06:16:25.958Z,100758.75
2022-10-29T06:18:54.536Z,100748.53
2022-10-29T06:21:23.237Z,100738.47
2022-10-29T06:23:56.127Z,100752.13
2022-10-29T06:26:24.808Z,100746.63
2022-10-29T06:28:53.321Z,100767.28
2022-10-29T06:31:22.071Z,100760.13
2022-10-29T06:33:50.587Z,100760.34
2022-10-29T06:36:19.297Z,100760.25
2022-10-29T06:38:47.893Z,100767.56
2022-10-29T06:41:18.129Z,100760.53
2022-10-29T06:43:46.643Z,100762.88
2022-10-29T06:46:15.362Z,100772.16
2022-10-29T06:48:43.823Z,100769.69
2022-10-29T06:51:12.601Z,100771.78
2022-10-29T06:53:41.155Z,100783.78
2022-10-29T06:56:09.920Z,100785.00
2022-10-29T06:58:40.005Z,100785.59
2022-10-29T07:01:08.724Z,100793.41
2022-10-29T07:03:37.251Z,100785.91
2022-10-29T07:06:06.298Z,100788.69
2022-10-29T07:08:35.055Z,100793.25
2022-10-29T07:11:04.518Z,100792.31
2022-10-29T07:13:33.358Z,100795.72
2022-10-29T07:16:03.373Z,100790.72
2022-10-29T07:18:32.871Z,100783.19
2022-10-29T07:21:03.811Z,100781.50
2022-10-29T07:23:32.738Z,100774.97
2022-10-29T07:26:01.286Z,100779.47
2022-10-29T07:28:30.003Z,100775.25
2022-10-29T07:31:02.497Z,100781.78
2022-10-29T07:33:31.882Z,100771.53
2022-10-29T07:36:01.426Z,100771.00
2022-10-29T07:38:30.196Z,100760.25
2022-10-29T07:40:58.718Z,100780.31
2022-10-29T07:43:27.432Z,100771.84
2022-10-29T07:45:55.931Z,100772.06
2022-10-29T07:48:25.995Z,100774.94
2022-10-29T07:50:54.876Z,100781.41
2022-10-29T07:53:23.605Z,100782.59
2022-10-29T07:55:55.821Z,100785.34
2022-10-29T07:58:25.721Z,100790.19
2022-10-29T08:00:54.985Z,100788.00
2022-10-29T08:03:25.100Z,100778.22
2022-10-29T08:05:55.451Z,100767.22
2022-10-29T08:08:25.842Z,100772.41
2022-10-29T08:10:54.443Z,100773.78
2022-10-29T08:13:22.948Z,100774.72
2022-10-29T08:15:51.635Z,100762.94
2022-10-29T08:18:20.398Z,100763.28
2022-10-29T08:20:50.416Z,100759.84
2022-10-29T08:23:19.347Z,100768.38
2022-10-29T08:25:47.885Z,100762.84
2022-10-29T08:28:17.456Z,100772.06
2022-10-29T08:30:51.559Z,100794.00
2022-10-29T08:33:20.819Z,100790.19
2022-10-29T08:35:51.116Z,100794.03
2022-10-29T08:38:19.971Z,100798.63
2022-10-29T08:41:10.326Z,100792.81
2022-10-29T08:44:24.579Z,100792.78
2022-10-29T08:47:06.977Z,100795.81
2022-10-29T08:49:42.829Z,100782.78
2022-10-29T08:52:20.852Z,100780.94
2022-10-29T08:55:05.118Z,100776.72
2022-10-29T08:57:42.105Z,100780.88
2022-10-29T09:00:20.049Z,100790.84
2022-10-29T09:02:49.610Z,100790.91
2022-10-29T09:05:25.938Z,100804.44
2022-10-29T09:08:27.227Z,100794.34
2022-10-29T09:11:01.956Z,100802.09
2022-10-29T09:13:48.902Z,100801.25
2022-10-29T09:16:34.481Z,100797.75
2022-10-29T09:19:29.284Z,100802.66
2022-10-29T09:22:12.275Z,100799.19
2022-10-29T09:24:55.879Z,100803.66
2022-10-29T09:27:46.175Z,100796.38
2022-10-29T09:30:18.772Z,100790.59
2022-10-29T09:33:00.800Z,100788.78
2022-10-29T09:35:40.308Z,100789.97
2022-10-29T09:38:19.243Z,100791.13
2022-10-29T09:40:49.503Z,100788.13
2022-10-29T09:43:34.342Z,100786.66
2022-10-29T09:46:14.466Z,100779.78
2022-10-29T09:48:57.365Z,100783.63
2022-10-29T09:51:41.960Z,100793.25
2022-10-29T09:54:11.408Z,100802.34
2022-10-29T09:56:48.536Z,100807.22
2022-10-29T09:59:30.616Z,100803.19
2022-10-29T10:02:00.826Z,100816.66
2022-10-29T10:04:36.972Z,100830.16
2022-10-29T10:07:09.156Z,100818.91
2022-10-29T10:09:57.042Z,100821.81
2022-10-29T10:12:30.676Z,100821.97
2022-10-29T10:15:18.341Z,100827.91
2022-10-29T10:18:00.785Z,100809.97
2022-10-29T10:20:37.499Z,100815.59
2022-10-29T10:23:24.092Z,100802.69
2022-10-29T10:25:58.888Z,100794.44
2022-10-29T10:28:34.853Z,100797.75
2022-10-29T10:31:12.516Z,100804.94
2022-10-29T10:33:52.834Z,100802.66
2022-10-29T10:36:26.474Z,100816.53
2022-10-29T10:38:59.451Z,100812.63
2022-10-29T10:41:33.844Z,100830.41
2022-10-29T10:44:06.239Z,100841.91
2022-10-29T10:46:40.096Z,100844.28
2022-10-29T10:49:17.109Z,100848.22
2022-10-29T10:51:51.816Z,100849.41
2022-10-29T10:54:42.104Z,100854.19
2022-10-29T10:57:24.189Z,100845.69
2022-10-29T11:00:03.657Z,100848.19
2022-10-29T11:02:44.324Z,100845.97
2022-10-29T11:05:19.516Z,100837.13
2022-10-29T11:07:58.605Z,100840.78
2022-10-29T11:10:38.163Z,100835.94
2022-10-29T11:13:14.919Z,100826.63
2022-10-29T11:15:55.176Z,100811.63
2022-10-29T11:18:31.753Z,100813.00
2022-10-29T11:21:11.725Z,100819.13
2022-10-29T11:24:02.227Z,100827.28
2022-10-29T11:26:38.668Z,100821.78
2022-10-29T11:29:20.226Z,100812.75
2022-10-29T11:32:01.515Z,100816.06
2022-10-29T11:34:46.813Z,100804.16
2022-10-29T11:37:26.671Z,100814.06
2022-10-29T11:40:03.643Z,100824.44
2022-10-29T11:42:32.373Z,100821.97
2022-10-29T11:45:01.581Z,100826.63
2022-10-29T11:48:03.310Z,100822.16
2022-10-29T11:50:45.679Z,100835.31
2022-10-29T11:53:39.151Z,100834.44
2022-10-29T11:56:20.476Z,100839.44
2022-10-29T11:58:58.579Z,100840.44
2022-10-29T12:01:42.041Z,100822.34
2022-10-29T12:04:28.094Z,100825.16
2022-10-29T12:07:15.215Z,100817.81
2022-10-29T12:10:22.891Z,100816.09
2022-10-29T12:13:05.493Z,100814.44
2022-10-29T12:15:41.520Z,100802.50
2022-10-29T12:18:23.940Z,100811.41
2022-10-29T12:21:07.048Z,100827.53
2022-10-29T12:23:58.322Z,100812.03
2022-10-29T12:26:39.981Z,100809.25
2022-10-29T12:29:19.016Z,100806.53
2022-10-29T12:31:58.197Z,100807.28
2022-10-29T12:34:34.967Z,100813.63
2022-10-29T12:37:14.444Z,100810.56
2022-10-29T12:39:50.953Z,100814.97
2022-10-29T12:42:25.928Z,100818.16
2022-10-29T12:45:16.300Z,100822.63
2022-10-29T12:47:53.882Z,100826.16
2022-10-29T12:50:38.199Z,100834.81
2022-10-29T12:53:21.818Z,100823.09
2022-10-29T12:55:52.083Z,100826.56
2022-10-29T12:58:44.924Z,100821.66
2022-10-29T13:02:10.654Z,100820.09
2022-10-29T13:04:37.957Z,100825.53
2022-10-29T13:07:24.634Z,100826.97
2022-10-29T13:10:51.612Z,100827.38
2022-10-29T13:13:49.703Z,100820.94
2022-10-29T13:16:22.844Z,100818.41
2022-10-29T13:19:10.359Z,100825.00
2022-10-29T13:22:03.540Z,100808.41
2022-10-29T13:24:33.296Z,100830.19
2022-10-29T13:27:27.330Z,100831.91
2022-10-29T13:30:25.471Z,100836.25
2022-10-29T13:32:55.404Z,100837.44
2022-10-29T13:35:43.512Z,100828.81
2022-10-29T13:38:16.039Z,100842.53
2022-10-29T13:41:11.866Z,100846.59
2022-10-29T13:43:52.376Z,100826.31
2022-10-29T13:46:45.870Z,100831.06
2022-10-29T13:49:21.385Z,100835.72
2022-10-29T13:51:58.442Z,100830.13
2022-10-29T13:54:45.106Z,100824.69
2022-10-29T13:57:24.571Z,100836.16
2022-10-29T14:00:02.693Z,100823.69
2022-10-29T14:02:54.424Z,100823.53
2022-10-29T14:05:29.623Z,100827.03
2022-10-29T14:08:08.412Z,100837.13
2022-10-29T14:10:46.045Z,100827.63
2022-10-29T14:13:30.887Z,100834.63
2022-10-29T14:16:11.356Z,100832.78
2022-10-29T14:18:42.050Z,100831.53
2022-10-29T14:21:17.639Z,100830.00
2022-10-29T14:24:01.956Z,100825.38
2022-10-29T14:26:32.983Z,100823.97
2022-10-29T14:29:16.212Z,100833.50
2022-10-29T14:31:47.115Z,100830.38
2022-10-29T14:34:27.044Z,100837.41
2022-10-29T14:37:00.682Z,100833.50
2022-10-29T14:39:55.522Z,100831.72
2022-10-29T14:42:32.890Z,100831.41
2022-10-29T14:45:05.920Z,100836.47
2022-10-29T14:47:38.454Z,100841.44
2022-10-29T14:50:19.788Z,100836.19
2022-10-29T14:52:54.264Z,100846.81
2022-10-29T14:55:27.410Z,100840.94
2022-10-29T14:58:05.833Z,100832.53
2022-10-29T15:00:38.354Z,100836.00
2022-10-29T15:03:09.087Z,100833.03
2022-10-29T15:05:39.921Z,100843.53
2022-10-29T15:08:19.149Z,100832.78
2022-10-29T15:10:51.248Z,100832.31
2022-10-29T15:13:30.460Z,100830.09
2022-10-29T15:16:05.785Z,100841.66
2022-10-29T15:18:38.703Z,100838.38
2022-10-29T15:21:07.961Z,100840.69
2022-10-29T15:23:43.744Z,100840.91
2022-10-29T15:26:20.596Z,100845.03
2022-10-29T15:28:52.383Z,100852.59
2022-10-29T15:31:27.728Z,100842.69
2022-10-29T15:34:09.025Z,100844.75
2022-10-29T15:36:47.834Z,100850.91
2022-10-29T15:39:27.797Z,100854.47
2022-10-29T15:42:00.182Z,100848.81
2022-10-29T15:44:40.523Z,100849.91
2022-10-29T15:47:28.319Z,100848.72
2022-10-29T15:49:58.791Z,100837.00
2022-10-29T15:52:33.781Z,100843.25
2022-10-29T15:55:06.754Z,100842.84
2022-10-29T15:57:36.076Z,100839.16
2022-10-29T16:00:07.958Z,100847.91
2022-10-29T16:02:37.491Z,100845.53
2022-10-29T16:05:08.613Z,100853.97
2022-10-29T16:07:37.220Z,100858.41
2022-10-29T16:10:07.320Z,100850.97
2022-10-29T16:12:35.847Z,100846.25
2022-10-29T16:15:04.888Z,100853.97
2022-10-29T16:17:33.375Z,100851.81
2022-10-29T16:20:01.877Z,100848.44
2022-10-29T16:22:32.059Z,100838.00
2022-10-29T16:25:00.552Z,100846.63
2022-10-29T16:27:29.350Z,100841.44
2022-10-29T16:29:58.160Z,100855.06
2022-10-29T16:32:27.015Z,100849.34
2022-10-29T16:34:55.498Z,100855.19
2022-10-29T16:37:24.216Z,100862.38
2022-10-29T16:39:54.195Z,100854.00
2022-10-29T16:42:31.591Z,100844.38
2022-10-29T16:45:00.335Z,100851.94
2022-10-29T16:47:29.307Z,100851.75
2022-10-29T16:49:57.917Z,100859.28
2022-10-29T16:52:29.468Z,100844.25
2022-10-29T16:55:00.008Z,100844.34
2022-10-29T16:57:29.540Z,100841.19
2022-10-29T16:59:58.354Z,100833.03
2022-10-29T17:02:26.998Z,100827.09
2022-10-29T17:04:55.556Z,100828.78
2022-10-29T17:07:24.355Z,100832.41
2022-10-29T17:09:52.923Z,100837.72
2022-10-29T17:12:22.845Z,100842.50
2022-10-29T17:14:51.586Z,100848.06
2022-10-29T17:17:20.188Z,100854.56
2022-10-29T17:19:48.968Z,100865.56
2022-10-29T17:22:17.655Z,100869.81
2022-10-29T17:24:46.420Z,100865.75
2022-10-29T17:27:15.501Z,100870.94
2022-10-29T17:29:45.388Z,100874.56
2022-10-29T17:32:14.099Z,100867.94
2022-10-29T17:34:42.677Z,100859.03
2022-10-29T17:37:12.082Z,100855.25
2022-10-29T17:39:40.625Z,100847.94
2022-10-29T17:42:09.633Z,100848.44
2022-10-29T17:44:38.160Z,100853.03
2022-10-29T17:47:08.032Z,100851.47
2022-10-29T17:49:36.761Z,100853.72
2022-10-29T17:52:06.186Z,100847.94
2022-10-29T17:54:35.390Z,100841.84
2022-10-29T17:57:04.485Z,100846.50
2022-10-29T17:59:33.014Z,100845.75
2022-10-29T18:02:01.598Z,100847.34
2022-10-29T18:04:31.809Z,100857.09
2022-10-29T18:07:00.327Z,100847.66
2022-10-29T18:09:29.075Z,100848.13
2022-10-29T18:11:57.632Z,100861.69
2022-10-29T18:14:26.232Z,100861.28
2022-10-29T18:16:54.949Z,100860.72
2022-10-29T18:19:23.829Z,100868.25
2022-10-29T18:21:53.890Z,100868.38
2022-10-29T18:24:24.251Z,100872.41
2022-10-29T18:26:53.130Z,100868.47
2022-10-29T18:29:21.659Z,100860.88
2022-10-29T18:31:50.385Z,100866.72
2022-10-29T18:34:18.978Z,100874.63
2022-10-29T18:36:47.865Z,100882.53
2022-10-29T18:39:18.057Z,100878.19
2022-10-29T18:41:46.582Z,100878.69
2022-10-29T18:44:15.075Z,100872.94
2022-10-29T18:46:44.020Z,100877.72
2022-10-29T18:49:13.546Z,100880.75
2022-10-29T18:51:42.404Z,100882.75
2022-10-29T18:54:14.583Z,100877.13
2022-10-29T18:56:44.775Z,100874.22
2022-10-29T18:59:14.439Z,100876.94
2022-10-29T19:01:43.353Z,100877.81
2022-10-29T19:04:15.717Z,100885.06
2022-10-29T19:06:45.147Z,100890.34
2022-10-29T19:09:13.867Z,100895.53
2022-10-29T19:11:43.937Z,100901.88
2022-10-29T19:14:15.115Z,100890.34
2022-10-29T19:16:43.884Z,100889.16
2022-10-29T19:19:17.062Z,100898.75
2022-10-29T19:21:47.317Z,100898.44
2022-10-29T19:24:16.601Z,100904.16
2022-10-29T19:26:46.797Z,100903.91
2022-10-29T19:29:16.100Z,100905.19
2022-10-29T19:31:47.601Z,100903.88
2022-10-29T19:34:16.242Z,100906.06
2022-10-29T19:36:45.497Z,100921.03
2022-10-29T19:39:14.223Z,100914.59
2022-10-29T19:41:42.740Z,100912.88
2022-10-29T19:44:12.782Z,100915.50
2022-10-29T19:46:43.228Z,100912.44
2022-10-29T19:49:11.941Z,100909.16
2022-10-29T19:51:40.536Z,100918.75
2022-10-29T19:54:09.470Z,100907.56
2022-10-29T19:56:37.997Z,100912.09
2022-10-29T19:59:07.088Z,100906.38
2022-10-29T20:01:38.424Z,100911.75
2022-10-29T20:04:07.264Z,100917.41
2022-10-29T20:06:35.836Z,100909.91
2022-10-29T20:09:04.765Z,100906.72
2022-10-29T20:11:33.430Z,100916.69
2022-10-29T20:14:02.582Z,100916.59
2022-10-29T20:16:31.142Z,100917.06
2022-10-29T20:19:01.728Z,100920.25
2022-10-29T20:21:30.462Z,100915.84
2022-10-29T20:23:59.110Z,100902.38
2022-10-29T20:26:27.971Z,100895.44
2022-10-29T20:28:57.087Z,100890.81
2022-10-29T20:31:31.009Z,100887.88
2022-10-29T20:34:02.723Z,100895.69
2022-10-29T20:36:33.598Z,100897.25
2022-10-29T20:39:02.748Z,100891.47
2022-10-29T20:41:31.713Z,100893.56
2022-10-29T20:44:02.293Z,100901.53
2022-10-29T20:46:31.323Z,100894.94
2022-10-29T20:49:00.159Z,100899.59
2022-10-29T20:51:30.284Z,100897.50
2022-10-29T20:53:59.122Z,100894.88
2022-10-29T20:56:29.166Z,100893.56
2022-10-29T20:58:58.110Z,100897.13
2022-10-29T21:01:27.049Z,100894.81
2022-10-29T21:03:56.134Z,100894.81
2022-10-29T21:06:24.908Z,100897.34
2022-10-29T21:08:54.779Z,100908.69
2022-10-29T21:11:24.941Z,100905.13
2022-10-29T21:13:53.522Z,100910.88
2022-10-29T21:16:26.463Z,100898.63
2022-10-29T21:18:58.226Z,100904.59
2022-10-29T21:21:29.673Z,100900.13
2022-10-29T21:24:00.027Z,100895.63
2022-10-29T21:26:30.420Z,100884.03
2022-10-29T21:28:59.066Z,100885.94
2022-10-29T21:31:28.032Z,100884.78
2022-10-29T21:33:57.250Z,100889.78
2022-10-29T21:36:25.780Z,100885.00
2022-10-29T21:38:54.543Z,100865.78
2022-10-29T21:41:24.438Z,100874.94
2022-10-29T21:43:53.135Z,100874.66
2022-10-29T21:46:21.842Z,100872.50
2022-10-29T21:48:50.382Z,100870.03
2022-10-29T21:51:18.926Z,100887.13
2022-10-29T21:53:47.659Z,100874.47
2022-10-29T21:56:16.974Z,100871.63
2022-10-29T21:58:46.878Z,100880.13
2022-10-29T22:01:17.538Z,100877.00
2022-10-29T22:03:49.072Z,100884.13
2022-10-29T22:06:20.829Z,100888.50
2022-10-29T22:08:55.599Z,100900.06
2022-10-29T22:11:26.024Z,100901.16
2022-10-29T22:13:56.428Z,100894.78
2022-10-29T22:16:25.117Z,100888.16
2022-10-29T22:18:54.274Z,100890.53
2022-10-29T22:21:25.702Z,100889.81
2022-10-29T22:23:56.772Z,100881.22
2022-10-29T22:26:28.883Z,100891.38
2022-10-29T22:28:59.712Z,100869.31
2022-10-29T22:31:28.371Z,100872.47
2022-10-29T22:33:57.062Z,100853.09
2022-10-29T22:36:28.273Z,100852.66
2022-10-29T22:38:58.906Z,100841.38
2022-10-29T22:41:29.850Z,100837.88
2022-10-29T22:44:00.819Z,100842.31
2022-10-29T22:46:31.287Z,100844.31
2022-10-29T22:49:01.763Z,100847.34
2022-10-29T22:51:33.844Z,100842.34
2022-10-29T22:54:03.069Z,100857.66
2022-10-29T22:56:34.423Z,100845.28
2022-10-29T22:59:05.992Z,100855.13
2022-10-29T23:01:42.106Z,100853.38
2022-10-29T23:04:13.907Z,100852.75
2022-10-29T23:06:42.876Z,100865.75
2022-10-29T23:09:11.527Z,100875.28
2022-10-29T23:11:40.231Z,100873.69
2022-10-29T23:14:10.413Z,100863.81
2022-10-29T23:16:39.015Z,100864.56
2022-10-29T23:19:08.104Z,100866.13
2022-10-29T23:21:37.516Z,100854.63
2022-10-29T23:24:06.911Z,100862.06
2022-10-29T23:26:35.434Z,100860.66
2022-10-29T23:29:04.302Z,100858.72
2022-10-29T23:31:34.169Z,100873.28
2022-10-29T23:34:02.661Z,100864.66
2022-10-29T23:36:31.482Z,100867.56
2022-10-29T23:39:02.238Z,100868.22
2022-10-29T23:41:32.571Z,100865.75
2022-10-29T23:44:01.572Z,100868.38
2022-10-29T23:46:30.476Z,100871.34
2022-10-29T23:49:00.420Z,100855.00
2022-10-29T23:51:29.180Z,100846.22
2022-10-29T23:53:57.985Z,100842.19
2022-10-29T23:56:27.154Z,100836.63
2022-10-29T23:58:56.186Z,100841.91
